sensor_id;sensor_type;location;lat;lon;timestamp;pressure;altitude;pressure_sealevel;temperature;humidity
74230;BME280;62589;12.568;99.958;2023-07-28T00:00:43;100326.00;;;35.33;48.82
74230;BME280;62589;12.568;99.958;2023-07-28T00:03:10;100327.53;;;35.38;48.51
74230;BME280;62589;12.568;99.958;2023-07-28T00:05:36;100311.53;;;35.42;48.30
74230;BME280;62589;12.568;99.958;2023-07-28T00:08:03;100325.84;;;35.47;47.21
74230;BME280;62589;12.568;99.958;2023-07-28T00:10:30;100325.78;;;35.51;47.14
74230;BME280;62589;12.568;99.958;2023-07-28T00:12:56;100326.59;;;35.52;46.76
74230;BME280;62589;12.568;99.958;2023-07-28T00:15:23;100332.47;;;35.57;46.44
74230;BME280;62589;12.568;99.958;2023-07-28T00:17:49;100329.66;;;35.61;45.92
74230;BME280;62589;12.568;99.958;2023-07-28T00:20:16;100336.78;;;35.65;46.08
74230;BME280;62589;12.568;99.958;2023-07-28T00:22:42;100345.06;;;35.72;46.04
74230;BME280;62589;12.568;99.958;2023-07-28T00:25:09;100338.28;;;35.73;46.12
74230;BME280;62589;12.568;99.958;2023-07-28T00:27:35;100349.38;;;35.80;46.37
74230;BME280;62589;12.568;99.958;2023-07-28T00:30:02;100342.97;;;35.84;45.72
74230;BME280;62589;12.568;99.958;2023-07-28T00:32:28;100342.97;;;35.84;45.95
74230;BME280;62589;12.568;99.958;2023-07-28T00:34:54;100345.72;;;35.87;45.70
74230;BME280;62589;12.568;99.958;2023-07-28T00:37:21;100352.03;;;35.91;45.64
74230;BME280;62589;12.568;99.958;2023-07-28T00:39:47;100353.94;;;35.98;45.65
74230;BME280;62589;12.568;99.958;2023-07-28T00:42:14;100356.72;;;35.98;45.53
74230;BME280;62589;12.568;99.958;2023-07-28T00:44:40;100367.03;;;36.04;45.84
74230;BME280;62589;12.568;99.958;2023-07-28T00:47:07;100372.16;;;36.09;45.45
74230;BME280;62589;12.568;99.958;2023-07-28T00:49:34;100375.72;;;36.10;46.09
74230;BME280;62589;12.568;99.958;2023-07-28T00:52:00;100367.59;;;36.19;46.10
74230;BME280;62589;12.568;99.958;2023-07-28T00:54:27;100376.72;;;36.23;45.91
74230;BME280;62589;12.568;99.958;2023-07-28T00:56:53;100384.34;;;36.23;45.24
74230;BME280;62589;12.568;99.958;2023-07-28T00:59:20;100386.31;;;36.26;46.00
74230;BME280;62589;12.568;99.958;2023-07-28T01:01:47;100389.91;;;36.26;45.91
74230;BME280;62589;12.568;99.958;2023-07-28T01:04:13;100387.84;;;36.30;45.48
74230;BME280;62589;12.568;99.958;2023-07-28T01:07:09;100387.44;;;36.32;45.25
74230;BME280;62589;12.568;99.958;2023-07-28T01:09:47;100387.47;;;36.28;45.43
74230;BME280;62589;12.568;99.958;2023-07-28T01:12:16;100387.53;;;36.21;45.09
74230;BME280;62589;12.568;99.958;2023-07-28T01:14:43;100389.97;;;36.19;45.18
74230;BME280;62589;12.568;99.958;2023-07-28T01:17:11;100397.91;;;36.24;44.89
74230;BME280;62589;12.568;99.958;2023-07-28T01:19:37;100394.28;;;36.27;44.82
74230;BME280;62589;12.568;99.958;2023-07-28T01:22:24;100394.19;;;36.34;45.29
74230;BME280;62589;12.568;99.958;2023-07-28T01:25:16;100394.13;;;36.38;44.54
74230;BME280;62589;12.568;99.958;2023-07-28T01:27:48;100396.50;;;36.39;44.86
74230;BME280;62589;12.568;99.958;2023-07-28T01:30:16;100406.47;;;36.40;44.51
74230;BME280;62589;12.568;99.958;2023-07-28T01:32:42;100410.00;;;36.44;44.91
74230;BME280;62589;12.568;99.958;2023-07-28T01:35:09;100407.66;;;36.39;44.15
74230;BME280;62589;12.568;99.958;2023-07-28T01:37:38;100412.38;;;36.46;44.21
74230;BME280;62589;12.568;99.958;2023-07-28T01:40:05;100414.38;;;36.45;44.27
74230;BME280;62589;12.568;99.958;2023-07-28T01:42:32;100425.16;;;36.47;44.32
74230;BME280;62589;12.568;99.958;2023-07-28T01:44:58;100421.94;;;36.48;44.93
74230;BME280;62589;12.568;99.958;2023-07-28T01:47:25;100420.25;;;36.55;44.77
74230;BME280;62589;12.568;99.958;2023-07-28T01:49:51;100419.34;;;36.61;44.97
74230;BME280;62589;12.568;99.958;2023-07-28T01:52:18;100410.84;;;36.68;45.25
74230;BME280;62589;12.568;99.958;2023-07-28T01:54:44;100414.00;;;36.74;44.11
74230;BME280;62589;12.568;99.958;2023-07-28T01:57:10;100410.41;;;36.73;44.13
74230;BME280;62589;12.568;99.958;2023-07-28T01:59:37;100421.03;;;36.82;44.05
74230;BME280;62589;12.568;99.958;2023-07-28T02:02:03;100414.28;;;36.79;43.49
74230;BME280;62589;12.568;99.958;2023-07-28T02:04:30;100426.91;;;36.91;43.10
74230;BME280;62589;12.568;99.958;2023-07-28T02:06:56;100427.63;;;36.95;43.20
74230;BME280;62589;12.568;99.958;2023-07-28T02:09:23;100428.38;;;36.99;43.65
74230;BME280;62589;12.568;99.958;2023-07-28T02:11:49;100429.06;;;37.03;43.08
74230;BME280;62589;12.568;99.958;2023-07-28T02:14:15;100421.84;;;37.06;43.02
74230;BME280;62589;12.568;99.958;2023-07-28T02:16:42;100431.41;;;37.08;43.08
74230;BME280;62589;12.568;99.958;2023-07-28T02:19:08;100434.56;;;37.10;42.76
74230;BME280;62589;12.568;99.958;2023-07-28T02:21:35;100441.25;;;37.16;42.93
74230;BME280;62589;12.568;99.958;2023-07-28T02:24:01;100421.66;;;37.16;42.75
74230;BME280;62589;12.568;99.958;2023-07-28T02:26:28;100426.78;;;37.22;43.18
74230;BME280;62589;12.568;99.958;2023-07-28T02:28:54;100430.31;;;37.26;42.81
74230;BME280;62589;12.568;99.958;2023-07-28T02:31:21;100440.25;;;37.30;42.90
74230;BME280;62589;12.568;99.958;2023-07-28T02:33:47;100437.50;;;37.27;42.02
74230;BME280;62589;12.568;99.958;2023-07-28T02:36:13;100432.28;;;37.29;42.37
74230;BME280;62589;12.568;99.958;2023-07-28T02:38:40;100442.25;;;37.30;42.37
74230;BME280;62589;12.568;99.958;2023-07-28T02:41:06;100443.78;;;37.34;42.13
74230;BME280;62589;12.568;99.958;2023-07-28T02:43:33;100444.19;;;37.33;41.61
74230;BME280;62589;12.568;99.958;2023-07-28T02:46:00;100435.81;;;37.33;42.58
74230;BME280;62589;12.568;99.958;2023-07-28T02:48:26;100442.97;;;37.34;42.12
74230;BME280;62589;12.568;99.958;2023-07-28T02:50:53;100440.56;;;37.36;41.63
74230;BME280;62589;12.568;99.958;2023-07-28T02:53:20;100450.16;;;37.35;41.63
74230;BME280;62589;12.568;99.958;2023-07-28T02:55:47;100442.06;;;37.40;41.91
74230;BME280;62589;12.568;99.958;2023-07-28T02:58:14;100440.91;;;37.38;41.53
74230;BME280;62589;12.568;99.958;2023-07-28T03:00:42;100442.88;;;37.41;41.89
74230;BME280;62589;12.568;99.958;2023-07-28T03:03:10;100442.06;;;37.40;41.44
74230;BME280;62589;12.568;99.958;2023-07-28T03:05:38;100443.13;;;37.46;41.71
74230;BME280;62589;12.568;99.958;2023-07-28T03:08:05;100435.59;;;37.43;41.42
74230;BME280;62589;12.568;99.958;2023-07-28T03:10:32;100439.97;;;37.44;41.41
74230;BME280;62589;12.568;99.958;2023-07-28T03:12:59;100429.13;;;37.46;41.40
74230;BME280;62589;12.568;99.958;2023-07-28T03:15:25;100420.31;;;37.48;41.27
74230;BME280;62589;12.568;99.958;2023-07-28T03:17:52;100423.03;;;37.52;41.59
74230;BME280;62589;12.568;99.958;2023-07-28T03:20:20;100421.81;;;37.53;41.25
74230;BME280;62589;12.568;99.958;2023-07-28T03:22:47;100419.53;;;37.47;40.83
74230;BME280;62589;12.568;99.958;2023-07-28T03:25:13;100421.91;;;37.49;41.00
74230;BME280;62589;12.568;99.958;2023-07-28T03:27:40;100416.59;;;37.55;41.30
74230;BME280;62589;12.568;99.958;2023-07-28T03:30:07;100403.75;;;37.57;41.62
74230;BME280;62589;12.568;99.958;2023-07-28T03:32:36;100408.50;;;37.60;41.67
74230;BME280;62589;12.568;99.958;2023-07-28T03:35:03;100412.50;;;37.59;41.22
74230;BME280;62589;12.568;99.958;2023-07-28T03:37:34;100416.00;;;37.63;41.34
74230;BME280;62589;12.568;99.958;2023-07-28T03:40:00;100411.97;;;37.64;41.20
74230;BME280;62589;12.568;99.958;2023-07-28T03:42:27;100410.41;;;37.63;41.16
74230;BME280;62589;12.568;99.958;2023-07-28T03:44:53;100409.63;;;37.63;41.36
74230;BME280;62589;12.568;99.958;2023-07-28T03:47:20;100414.38;;;37.66;41.40
74230;BME280;62589;12.568;99.958;2023-07-28T03:49:47;100408.72;;;37.69;41.65
74230;BME280;62589;12.568;99.958;2023-07-28T03:52:13;100399.88;;;37.71;41.51
74230;BME280;62589;12.568;99.958;2023-07-28T03:54:40;100405.50;;;37.71;41.57
74230;BME280;62589;12.568;99.958;2023-07-28T03:57:08;100402.25;;;37.72;41.42
74230;BME280;62589;12.568;99.958;2023-07-28T03:59:35;100391.91;;;37.69;41.58
74230;BME280;62589;12.568;99.958;2023-07-28T04:02:02;100399.47;;;37.72;41.19
74230;BME280;62589;12.568;99.958;2023-07-28T04:04:28;100397.88;;;37.71;41.80
74230;BME280;62589;12.568;99.958;2023-07-28T04:06:55;100387.88;;;37.70;41.72
74230;BME280;62589;12.568;99.958;2023-07-28T04:09:21;100399.03;;;37.74;42.06
74230;BME280;62589;12.568;99.958;2023-07-28T04:11:48;100390.25;;;37.72;42.10
74230;BME280;62589;12.568;99.958;2023-07-28T04:14:14;100383.00;;;37.74;42.21
74230;BME280;62589;12.568;99.958;2023-07-28T04:16:40;100375.03;;;37.73;42.53
74230;BME280;62589;12.568;99.958;2023-07-28T04:19:07;100374.19;;;37.76;42.72
74230;BME280;62589;12.568;99.958;2023-07-28T04:21:33;100382.16;;;37.77;42.69
74230;BME280;62589;12.568;99.958;2023-07-28T04:24:00;100384.66;;;37.72;42.05
74230;BME280;62589;12.568;99.958;2023-07-28T04:26:26;100389.91;;;37.70;41.58
74230;BME280;62589;12.568;99.958;2023-07-28T04:28:53;100375.16;;;37.66;43.17
74230;BME280;62589;12.568;99.958;2023-07-28T04:31:20;100370.34;;;37.66;43.05
74230;BME280;62589;12.568;99.958;2023-07-28T04:33:46;100379.97;;;37.65;42.91
74230;BME280;62589;12.568;99.958;2023-07-28T04:36:13;100369.28;;;37.60;42.71
74230;BME280;62589;12.568;99.958;2023-07-28T04:38:39;100367.25;;;37.61;43.39
74230;BME280;62589;12.568;99.958;2023-07-28T04:41:05;100354.53;;;37.56;43.29
74230;BME280;62589;12.568;99.958;2023-07-28T04:43:32;100347.38;;;37.55;42.99
74230;BME280;62589;12.568;99.958;2023-07-28T04:45:58;100347.38;;;37.55;43.54
74230;BME280;62589;12.568;99.958;2023-07-28T04:48:27;100347.44;;;37.52;43.66
74230;BME280;62589;12.568;99.958;2023-07-28T04:50:54;100345.00;;;37.54;43.74
74230;BME280;62589;12.568;99.958;2023-07-28T04:53:20;100341.97;;;37.44;43.73
74230;BME280;62589;12.568;99.958;2023-07-28T04:55:47;100344.34;;;37.46;44.23
74230;BME280;62589;12.568;99.958;2023-07-28T04:58:13;100330.84;;;37.41;44.00
74230;BME280;62589;12.568;99.958;2023-07-28T05:00:40;100338.91;;;37.39;43.95
74230;BME280;62589;12.568;99.958;2023-07-28T05:03:06;100334.50;;;37.38;44.18
74230;BME280;62589;12.568;99.958;2023-07-28T05:05:33;100334.16;;;37.36;44.01
74230;BME280;62589;12.568;99.958;2023-07-28T05:07:59;100338.53;;;37.37;44.11
74230;BME280;62589;12.568;99.958;2023-07-28T05:10:26;100352.00;;;37.42;44.20
74230;BME280;62589;12.568;99.958;2023-07-28T05:12:52;100348.09;;;37.39;44.29
74230;BME280;62589;12.568;99.958;2023-07-28T05:15:19;100356.38;;;37.43;44.54
74230;BME280;62589;12.568;99.958;2023-07-28T05:17:45;100346.72;;;37.47;45.39
74230;BME280;62589;12.568;99.958;2023-07-28T05:20:12;100335.06;;;37.49;45.45
74230;BME280;62589;12.568;99.958;2023-07-28T05:22:38;100347.38;;;37.55;45.56
74230;BME280;62589;12.568;99.958;2023-07-28T05:25:05;100340.13;;;37.58;45.38
74230;BME280;62589;12.568;99.958;2023-07-28T05:27:33;100336.88;;;37.59;44.88
74230;BME280;62589;12.568;99.958;2023-07-28T05:29:59;100339.25;;;37.61;44.43
74230;BME280;62589;12.568;99.958;2023-07-28T05:32:26;100335.94;;;37.66;44.34
74230;BME280;62589;12.568;99.958;2023-07-28T05:34:52;100335.53;;;37.67;43.95
74230;BME280;62589;12.568;99.958;2023-07-28T05:37:19;100331.94;;;37.67;43.95
74230;BME280;62589;12.568;99.958;2023-07-28T05:39:46;100332.72;;;37.67;43.72
74230;BME280;62589;12.568;99.958;2023-07-28T05:42:12;100326.25;;;37.70;43.79
74230;BME280;62589;12.568;99.958;2023-07-28T05:44:39;100322.94;;;37.75;44.00
74230;BME280;62589;12.568;99.958;2023-07-28T05:47:05;100315.25;;;37.79;44.01
74230;BME280;62589;12.568;99.958;2023-07-28T05:49:32;100306.00;;;37.82;43.27
74230;BME280;62589;12.568;99.958;2023-07-28T05:51:59;100311.06;;;37.88;43.43
74230;BME280;62589;12.568;99.958;2023-07-28T05:54:25;100303.09;;;37.86;42.56
74230;BME280;62589;12.568;99.958;2023-07-28T05:56:52;100300.22;;;37.90;42.71
74230;BME280;62589;12.568;99.958;2023-07-28T05:59:20;100293.38;;;37.91;42.71
74230;BME280;62589;12.568;99.958;2023-07-28T06:01:47;100290.50;;;37.94;42.73
74230;BME280;62589;12.568;99.958;2023-07-28T06:04:13;100289.22;;;37.99;42.84
74230;BME280;62589;12.568;99.958;2023-07-28T06:06:40;100292.88;;;37.96;42.83
74230;BME280;62589;12.568;99.958;2023-07-28T06:09:06;100291.94;;;38.02;42.45
74230;BME280;62589;12.568;99.958;2023-07-28T06:11:33;100283.25;;;37.97;41.73
74230;BME280;62589;12.568;99.958;2023-07-28T06:14:00;100288.34;;;38.02;40.75
74230;BME280;62589;12.568;99.958;2023-07-28T06:16:26;100287.13;;;38.03;40.11
74230;BME280;62589;12.568;99.958;2023-07-28T06:18:53;100287.91;;;38.03;39.91
74230;BME280;62589;12.568;99.958;2023-07-28T06:21:19;100287.44;;;38.05;40.00
74230;BME280;62589;12.568;99.958;2023-07-28T06:23:46;100291.75;;;38.09;39.65
74230;BME280;62589;12.568;99.958;2023-07-28T06:26:12;100284.66;;;38.05;39.99
74230;BME280;62589;12.568;99.958;2023-07-28T06:28:39;100287.19;;;37.99;39.20
74230;BME280;62589;12.568;99.958;2023-07-28T06:31:05;100289.66;;;37.97;39.13
74230;BME280;62589;12.568;99.958;2023-07-28T06:33:32;100287.72;;;37.94;38.47
74230;BME280;62589;12.568;99.958;2023-07-28T06:35:58;100283.75;;;37.92;38.48
74230;BME280;62589;12.568;99.958;2023-07-28T06:38:25;100290.94;;;37.93;39.12
74230;BME280;62589;12.568;99.958;2023-07-28T06:40:52;100282.09;;;37.94;38.78
74230;BME280;62589;12.568;99.958;2023-07-28T06:43:19;100275.72;;;37.94;38.75
74230;BME280;62589;12.568;99.958;2023-07-28T06:45:45;100279.31;;;37.94;37.85
74230;BME280;62589;12.568;99.958;2023-07-28T06:48:12;100276.16;;;37.92;38.38
74230;BME280;62589;12.568;99.958;2023-07-28T06:50:38;100266.78;;;37.99;38.53
74230;BME280;62589;12.568;99.958;2023-07-28T06:53:05;100276.41;;;37.98;38.46
74230;BME280;62589;12.568;99.958;2023-07-28T06:55:32;100285.19;;;38.00;38.70
74230;BME280;62589;12.568;99.958;2023-07-28T06:57:58;100275.91;;;38.03;39.35
74230;BME280;62589;12.568;99.958;2023-07-28T07:00:25;100280.78;;;37.82;39.41
74230;BME280;62589;12.568;99.958;2023-07-28T07:02:51;100288.47;;;37.78;39.62
74230;BME280;62589;12.568;99.958;2023-07-28T07:05:18;100270.16;;;37.74;40.13
74230;BME280;62589;12.568;99.958;2023-07-28T07:07:44;100266.94;;;37.75;40.22
74230;BME280;62589;12.568;99.958;2023-07-28T07:10:11;100256.59;;;37.72;40.17
74230;BME280;62589;12.568;99.958;2023-07-28T07:12:37;100251.84;;;37.69;39.81
74230;BME280;62589;12.568;99.958;2023-07-28T07:15:05;100247.81;;;37.70;40.29
74230;BME280;62589;12.568;99.958;2023-07-28T07:17:33;100251.69;;;37.76;40.76
74230;BME280;62589;12.568;99.958;2023-07-28T07:19:59;100253.28;;;37.77;41.07
74230;BME280;62589;12.568;99.958;2023-07-28T07:22:26;100259.59;;;37.81;40.19
74230;BME280;62589;12.568;99.958;2023-07-28T07:24:54;100254.84;;;37.78;39.93
74230;BME280;62589;12.568;99.958;2023-07-28T07:27:24;100251.50;;;37.83;40.02
74230;BME280;62589;12.568;99.958;2023-07-28T07:29:51;100242.78;;;37.81;39.77
74230;BME280;62589;12.568;99.958;2023-07-28T07:32:18;100247.16;;;37.82;39.61
74230;BME280;62589;12.568;99.958;2023-07-28T07:34:44;100237.69;;;37.76;39.06
74230;BME280;62589;12.568;99.958;2023-07-28T07:37:11;100239.97;;;37.81;39.13
74230;BME280;62589;12.568;99.958;2023-07-28T07:39:37;100239.25;;;37.77;39.02
74230;BME280;62589;12.568;99.958;2023-07-28T07:42:04;100237.41;;;37.71;39.22
74230;BME280;62589;12.568;99.958;2023-07-28T07:44:31;100238.97;;;37.72;38.93
74230;BME280;62589;12.568;99.958;2023-07-28T07:47:00;100234.16;;;37.72;38.86
74230;BME280;62589;12.568;99.958;2023-07-28T07:49:27;100225.75;;;37.72;38.87
74230;BME280;62589;12.568;99.958;2023-07-28T07:51:54;100224.63;;;37.70;38.68
74230;BME280;62589;12.568;99.958;2023-07-28T07:54:20;100223.75;;;37.73;38.19
74230;BME280;62589;12.568;99.958;2023-07-28T07:56:47;100225.06;;;37.68;37.95
74230;BME280;62589;12.568;99.958;2023-07-28T07:59:13;100217.38;;;37.72;38.97
74230;BME280;62589;12.568;99.958;2023-07-28T08:01:40;100213.19;;;37.80;38.89
74230;BME280;62589;12.568;99.958;2023-07-28T08:04:06;100209.47;;;37.83;38.25
74230;BME280;62589;12.568;99.958;2023-07-28T08:06:33;100201.44;;;37.86;38.40
74230;BME280;62589;12.568;99.958;2023-07-28T08:08:59;100201.53;;;37.82;38.31
74230;BME280;62589;12.568;99.958;2023-07-28T08:11:26;100195.03;;;37.85;37.72
74230;BME280;62589;12.568;99.958;2023-07-28T08:13:52;100194.25;;;37.84;37.90
74230;BME280;62589;12.568;99.958;2023-07-28T08:16:19;100193.47;;;37.84;37.44
74230;BME280;62589;12.568;99.958;2023-07-28T08:18:45;100187.41;;;37.86;37.77
74230;BME280;62589;12.568;99.958;2023-07-28T08:21:12;100200.56;;;37.89;37.87
74230;BME280;62589;12.568;99.958;2023-07-28T08:23:39;100186.38;;;37.79;37.44
74230;BME280;62589;12.568;99.958;2023-07-28T08:26:05;100196.25;;;37.84;37.80
74230;BME280;62589;12.568;99.958;2023-07-28T08:28:32;100181.81;;;37.86;38.04
74230;BME280;62589;12.568;99.958;2023-07-28T08:30:58;100180.16;;;37.88;38.92
74230;BME280;62589;12.568;99.958;2023-07-28T08:33:25;100181.38;;;37.87;38.86
74230;BME280;62589;12.568;99.958;2023-07-28T08:35:52;100176.66;;;37.84;37.94
74230;BME280;62589;12.568;99.958;2023-07-28T08:38:18;100181.81;;;37.86;37.69
74230;BME280;62589;12.568;99.958;2023-07-28T08:40:45;100178.66;;;37.83;38.13
74230;BME280;62589;12.568;99.958;2023-07-28T08:43:11;100178.59;;;37.87;38.03
74230;BME280;62589;12.568;99.958;2023-07-28T08:45:38;100167.44;;;37.83;37.47
74230;BME280;62589;12.568;99.958;2023-07-28T08:48:05;100178.16;;;37.89;37.77
74230;BME280;62589;12.568;99.958;2023-07-28T08:50:31;100155.81;;;37.85;38.03
74230;BME280;62589;12.568;99.958;2023-07-28T08:52:59;100157.50;;;37.82;37.84
74230;BME280;62589;12.568;99.958;2023-07-28T08:55:25;100145.94;;;37.80;37.66
74230;BME280;62589;12.568;99.958;2023-07-28T08:57:52;100154.69;;;37.82;37.73
74230;BME280;62589;12.568;99.958;2023-07-28T09:00:19;100148.38;;;37.78;37.45
74230;BME280;62589;12.568;99.958;2023-07-28T09:02:49;100154.50;;;37.73;37.44
74230;BME280;62589;12.568;99.958;2023-07-28T09:05:20;100151.63;;;37.77;37.40
74230;BME280;62589;12.568;99.958;2023-07-28T09:07:49;100155.91;;;37.81;37.80
74230;BME280;62589;12.568;99.958;2023-07-28T09:10:18;100156.00;;;37.78;37.43
74230;BME280;62589;12.568;99.958;2023-07-28T09:12:48;100160.81;;;37.77;37.59
74230;BME280;62589;12.568;99.958;2023-07-28T09:15:15;100158.03;;;37.77;37.46
74230;BME280;62589;12.568;99.958;2023-07-28T09:17:46;100169.22;;;37.77;37.30
74230;BME280;62589;12.568;99.958;2023-07-28T09:20:14;100163.69;;;37.74;37.67
74230;BME280;62589;12.568;99.958;2023-07-28T09:22:41;100168.50;;;37.73;37.48
74230;BME280;62589;12.568;99.958;2023-07-28T09:25:16;100169.38;;;37.70;37.27
74230;BME280;62589;12.568;99.958;2023-07-28T09:27:52;100159.31;;;37.73;37.88
74230;BME280;62589;12.568;99.958;2023-07-28T09:30:19;100160.13;;;37.73;37.56
74230;BME280;62589;12.568;99.958;2023-07-28T09:32:49;100151.00;;;37.69;37.41
74230;BME280;62589;12.568;99.958;2023-07-28T09:35:16;100143.81;;;37.68;37.28
74230;BME280;62589;12.568;99.958;2023-07-28T09:37:46;100147.09;;;37.63;37.36
74230;BME280;62589;12.568;99.958;2023-07-28T09:40:17;100136.81;;;37.60;37.73
74230;BME280;62589;12.568;99.958;2023-07-28T09:42:47;100148.00;;;37.60;37.29
74230;BME280;62589;12.568;99.958;2023-07-28T09:45:17;100152.31;;;37.65;37.66
74230;BME280;62589;12.568;99.958;2023-07-28T09:47:45;100159.53;;;37.62;37.87
74230;BME280;62589;12.568;99.958;2023-07-28T09:50:15;100163.13;;;37.63;37.98
74230;BME280;62589;12.568;99.958;2023-07-28T09:52:44;100147.91;;;37.64;38.28
74230;BME280;62589;12.568;99.958;2023-07-28T09:55:12;100165.09;;;37.66;38.34
74230;BME280;62589;12.568;99.958;2023-07-28T09:57:46;100159.22;;;37.60;38.44
74230;BME280;62589;12.568;99.958;2023-07-28T10:00:17;100165.50;;;37.64;38.75
74230;BME280;62589;12.568;99.958;2023-07-28T10:02:45;100158.06;;;37.58;38.51
74230;BME280;62589;12.568;99.958;2023-07-28T10:05:12;100169.69;;;37.56;38.63
74230;BME280;62589;12.568;99.958;2023-07-28T10:07:43;100167.75;;;37.53;39.00
74230;BME280;62589;12.568;99.958;2023-07-28T10:10:11;100161.81;;;37.51;39.42
74230;BME280;62589;12.568;99.958;2023-07-28T10:12:49;100157.44;;;37.50;39.33
74230;BME280;62589;12.568;99.958;2023-07-28T10:15:18;100165.81;;;37.50;39.29
74230;BME280;62589;12.568;99.958;2023-07-28T10:17:47;100170.00;;;37.42;39.49
74230;BME280;62589;12.568;99.958;2023-07-28T10:20:31;100162.75;;;37.44;39.30
74230;BME280;62589;12.568;99.958;2023-07-28T10:23:20;100162.84;;;37.41;39.20
74230;BME280;62589;12.568;99.958;2023-07-28T10:25:56;100166.88;;;37.40;39.55
74230;BME280;62589;12.568;99.958;2023-07-28T10:28:36;100174.91;;;37.38;39.72
74230;BME280;62589;12.568;99.958;2023-07-28T10:31:10;100164.16;;;37.36;39.58
74230;BME280;62589;12.568;99.958;2023-07-28T10:33:38;100155.03;;;37.32;39.32
74230;BME280;62589;12.568;99.958;2023-07-28T10:36:17;100159.34;;;37.37;39.77
74230;BME280;62589;12.568;99.958;2023-07-28T10:38:44;100151.09;;;37.30;39.51
74230;BME280;62589;12.568;99.958;2023-07-28T10:41:17;100157.91;;;37.29;39.30
74230;BME280;62589;12.568;99.958;2023-07-28T10:43:44;100159.16;;;37.44;38.95
74230;BME280;62589;12.568;99.958;2023-07-28T10:46:20;100164.66;;;37.31;39.81
74230;BME280;62589;12.568;99.958;2023-07-28T10:48:48;100165.88;;;37.30;39.69
74230;BME280;62589;12.568;99.958;2023-07-28T10:51:24;100152.81;;;37.24;39.72
74230;BME280;62589;12.568;99.958;2023-07-28T10:53:54;100151.59;;;37.25;39.16
74230;BME280;62589;12.568;99.958;2023-07-28T10:56:22;100162.44;;;37.23;39.73
74230;BME280;62589;12.568;99.958;2023-07-28T10:59:01;100163.31;;;37.20;39.80
74230;BME280;62589;12.568;99.958;2023-07-28T11:01:36;100154.13;;;37.19;39.69
74230;BME280;62589;12.568;99.958;2023-07-28T11:04:15;100149.81;;;37.14;39.84
74230;BME280;62589;12.568;99.958;2023-07-28T11:06:44;100156.25;;;37.11;39.86
74230;BME280;62589;12.568;99.958;2023-07-28T11:09:12;100148.28;;;37.10;39.79
74230;BME280;62589;12.568;99.958;2023-07-28T11:11:41;100149.16;;;37.07;40.01
74230;BME280;62589;12.568;99.958;2023-07-28T11:14:08;100157.97;;;37.05;39.93
74230;BME280;62589;12.568;99.958;2023-07-28T11:16:40;100154.81;;;37.03;40.27
74230;BME280;62589;12.568;99.958;2023-07-28T11:19:25;100158.06;;;37.02;40.16
74230;BME280;62589;12.568;99.958;2023-07-28T11:21:52;100154.13;;;36.99;40.28
74230;BME280;62589;12.568;99.958;2023-07-28T11:24:20;100154.91;;;37.00;40.28
74230;BME280;62589;12.568;99.958;2023-07-28T11:26:46;100152.09;;;37.00;40.43
74230;BME280;62589;12.568;99.958;2023-07-28T11:29:14;100150.97;;;36.97;40.50
74230;BME280;62589;12.568;99.958;2023-07-28T11:31:41;100156.56;;;36.97;40.35
74230;BME280;62589;12.568;99.958;2023-07-28T11:34:15;100161.44;;;36.93;40.61
74230;BME280;62589;12.568;99.958;2023-07-28T11:36:41;100161.44;;;36.93;40.85
74230;BME280;62589;12.568;99.958;2023-07-28T11:39:08;100152.34;;;36.89;40.75
74230;BME280;62589;12.568;99.958;2023-07-28T11:41:37;100175.16;;;36.88;40.55
74230;BME280;62589;12.568;99.958;2023-07-28T11:44:04;100178.44;;;36.82;41.06
74230;BME280;62589;12.568;99.958;2023-07-28T11:46:38;100191.38;;;36.76;40.82
74230;BME280;62589;12.568;99.958;2023-07-28T11:49:18;100192.22;;;36.73;41.08
74230;BME280;62589;12.568;99.958;2023-07-28T11:51:55;100196.63;;;36.71;41.24
74230;BME280;62589;12.568;99.958;2023-07-28T11:54:25;100198.25;;;36.72;41.21
74230;BME280;62589;12.568;99.958;2023-07-28T11:56:56;100197.47;;;36.68;41.68
74230;BME280;62589;12.568;99.958;2023-07-28T11:59:23;100200.63;;;36.70;41.75
74230;BME280;62589;12.568;99.958;2023-07-28T12:02:01;100203.44;;;36.70;41.60
74230;BME280;62589;12.568;99.958;2023-07-28T12:04:29;100206.28;;;36.66;41.41
74230;BME280;62589;12.568;99.958;2023-07-28T12:07:12;100217.84;;;36.68;41.60
74230;BME280;62589;12.568;99.958;2023-07-28T12:09:50;100221.88;;;36.67;41.56
74230;BME280;62589;12.568;99.958;2023-07-28T12:12:26;100232.25;;;36.67;41.57
74230;BME280;62589;12.568;99.958;2023-07-28T12:14:55;100224.34;;;36.62;41.58
74230;BME280;62589;12.568;99.958;2023-07-28T12:17:24;100222.78;;;36.61;41.92
74230;BME280;62589;12.568;99.958;2023-07-28T12:20:12;100229.81;;;36.69;41.67
74230;BME280;62589;12.568;99.958;2023-07-28T12:22:41;100235.47;;;36.65;41.77
74230;BME280;62589;12.568;99.958;2023-07-28T12:25:09;100245.03;;;36.68;41.76
74230;BME280;62589;12.568;99.958;2023-07-28T12:27:35;100247.03;;;36.67;42.00
74230;BME280;62589;12.568;99.958;2023-07-28T12:30:03;100254.69;;;36.63;41.80
74230;BME280;62589;12.568;99.958;2023-07-28T12:32:29;100268.63;;;36.67;42.05
74230;BME280;62589;12.568;99.958;2023-07-28T12:34:56;100270.69;;;36.63;41.84
74230;BME280;62589;12.568;99.958;2023-07-28T12:37:22;100278.00;;;36.57;41.90
74230;BME280;62589;12.568;99.958;2023-07-28T12:39:49;100285.59;;;36.56;42.04
74230;BME280;62589;12.568;99.958;2023-07-28T12:42:16;100279.28;;;36.52;42.31
74230;BME280;62589;12.568;99.958;2023-07-28T12:44:42;100285.66;;;36.53;42.13